Gonzalo Peña

Olheiro-Chefe - Elche
20 Fev 2028
Domingo
Processo

Personalidade

Adaptabilidade (4) Ambição (15) Controvérsia (18) Lealdade (17) Pressão (9) Profissionalismo (5) Espírito Esportivo (16) Temperamento (13)

Perfil

Estilo de Treinamento Democrático
Licença Continental C
Determinação 5
Gestão de Pessoas 8
Motivação 4
Disciplina 4
Satisfação no Trabalho
100%
Fadiga
0%
Função Olheiro-Chefe
Salário 33.0K p/s
Contrato 14.03.2030

Desempenho

Comportamento Bom
Eficácia do Treinamento
51%
Desenvolvimento do Jogador
60%
Prevenção de Lesões
65%
Implementação Tática
60%

Eventos Recentes

Participou de uma reunião de recrutamento agora
Participou de uma reunião de recrutamento agora
Participou de uma reunião de recrutamento 7d atrás
Participou de uma reunião de recrutamento 7d atrás
Participou de uma reunião de recrutamento 7d atrás
Observou uma partida 7d atrás
Participou de uma reunião de recrutamento 14d atrás
Observou uma partida 14d atrás

Monitorando agora

209
Jogador Clube Status Habilidade Confiança Observado Última observação Último voto
Toni Fruk Udinese Relatório pronto 132 / 133 89% 1 31.01.2028 -
Javi Mier Zaragoza Relatório pronto 126 / 115 69% 1 10.01.2028 -
David Valencia Alianza Petrolera Negociando 128 / 133 40% 7 01.01.2028 -
Mao Hosoya Everton Negociando 134 / 135 90% 1 01.01.2028 -
Joe Johnson Barnet Ativo 102 / 110 40% 1 01.01.2028 -
Caleb Yirenkyi Coventry City Ativo 136 / 143 40% 4 31.12.2027 -
Josh Nichols Tranmere Rovers Ativo 124 / 128 40% 1 31.12.2027 -
Mirza Ćatović VfB Stuttgart Ativo 117 / 131 40% 2 30.12.2027 -
Ayden Heaven Luton Town Ativo 148 / 151 40% 2 30.12.2027 -
Ronan Kpakio Cardiff City Ativo 123 / 127 40% 1 30.12.2027 -
Celías Ingenthron Vélez Ativo 122 / 124 40% 7 29.12.2027 -
Martín Jiménez Audax Italiano Ativo 95 / 105 40% 2 29.12.2027 -
Avery Appiah Ajax Ativo 123 / 119 40% 1 29.12.2027 -
Olaniyi Saheed Kwara United Ativo 104 / 97 40% 4 27.12.2027 -
Emiliano Bértoli Patronato Ativo 88 / 100 40% 5 27.12.2027 -
Kauã Moraes Cruzeiro Ativo 133 / 128 40% 2 26.12.2027 -
Archie Gray Derby County Ativo 150 / 152 40% 4 26.12.2027 -
Joel Ezra Enyimba Ativo 102 / 96 40% 5 25.12.2027 -
Felipe Obradovich Ferro Carril Oeste Ativo 106 / 118 40% 1 25.12.2027 -
Agustín Obregón River Plate Ativo 119 / 120 40% 4 24.12.2027 -
Noahkai Banks Hamburger SV Ativo 142 / 140 40% 1 24.12.2027 -
Jorge Salinas Racing Santander Ativo 138 / 136 40% 1 24.12.2027 -
Ricky Atletico Venezuela Ativo 90 / 103 40% 5 21.12.2027 -
Ángel Aguayo Sol de America Ativo 88 / 102 40% 2 21.12.2027 -
Daniel Banjaqui Benfica Ativo 127 / 129 40% 2 20.12.2027 -
Mauro Carrizo Atlético Tucumán Ativo 109 / 108 40% 2 19.12.2027 -
Hervin Goyes Deportivo Pasto Ativo 109 / 110 40% 9 19.12.2027 -
Andrija Bulatović RC Lens Ativo 127 / 138 40% 1 19.12.2027 -
Alejandro Almaraz Nueva Chicago Ativo 101 / 115 40% 3 17.12.2027 -
Mikkel Hope Haugesund Ativo 97 / 101 40% 3 17.12.2027 -
Santiago Espíndola River Plate Ativo 113 / 115 40% 2 16.12.2027 -
Diego Vargas San Marcos de Arica Ativo 96 / 94 40% 4 14.12.2027 -
Izan Merino Málaga Ativo 129 / 131 40% 1 14.12.2027 -
Trey Nyoni Rotherham United Ativo 134 / 141 40% 3 13.12.2027 -
Ulises Giménez River Plate Ativo 116 / 118 40% 3 12.12.2027 -
Tobías Andrada Virtus Entella Ativo 116 / 128 40% 2 07.12.2027 -
Elkin Rivero Atletico Nacional Ativo 98 / 114 40% 2 06.12.2027 -
Jofre Torrents Ajax Ativo 124 / 135 40% 1 06.12.2027 -
Jorrel Hato Chelsea Ativo 152 / 157 40% 1 06.12.2027 -
Nika Kvaratskhelia Tskhinvali Ativo 102 / 97 40% 1 19.11.2027 -
Tyson Pearce St. Louis CITY SC Ativo 97 / 105 40% 1 18.11.2027 -
Samuel Martín Millonarios Ativo 111 / 110 40% 1 14.11.2027 -
Mads Bomholt Stabaek Ativo 100 / 116 40% 4 11.11.2027 -
Tobias Moi Bodo/Glimt Ativo 118 / 111 40% 1 11.11.2027 -
Zahir Ibarra Defensa y Justicia Ativo 97 / 108 40% 1 09.11.2027 -
Santino Pasini Nea Salamis Ativo 95 / 98 40% 1 09.11.2027 -
Christos Mouzakitis Hull City Ativo 139 / 140 40% 1 08.11.2027 -
Sebastián Ramírez Jaguares Ativo 112 / 115 40% 3 06.11.2027 -
Marlon Balanta Real Cartagena Ativo 99 / 94 40% 1 06.11.2027 -
Luis Otávio Colorado Rapids Ativo 109 / 115 40% 3 05.11.2027 -
Bahia Criciuma Ativo 120 / 125 40% 1 04.11.2027 -
Héctor Fort Real Sociedad Ativo 143 / 140 40% 2 02.11.2027 -
Ignacio Fernández Boston River Ativo 85 / 104 40% 3 25.10.2027 -
Matteo Pérez Vinlöf Dinamo Zagreb Ativo 127 / 124 40% 1 25.10.2027 -
Dmitry Pestryakov Dinamo Moscow Ativo 116 / 129 40% 1 24.10.2027 -
Estanislao López Colón Ativo 91 / 101 40% 1 19.10.2027 -
Nazareno Roselli Defensa y Justicia Ativo 106 / 121 40% 1 19.10.2027 -
Esteban de Lima Tacuarembo Ativo 85 / 98 40% 1 11.10.2027 -
Germán Barbas Penarol Ativo 106 / 113 40% 1 11.10.2027 -
José Correa Deportivo Tachira Ativo 97 / 99 40% 3 10.10.2027 -
Juan Morán Godoy Cruz Ativo 110 / 112 40% 1 10.10.2027 -
Harbor Miller LA Galaxy Ativo 88 / 107 40% 1 09.10.2027 -
Adam Aznou Everton Ativo 128 / 129 40% 1 09.10.2027 -
Matías Magdaleno Estudiantes Ativo 99 / 111 40% 1 08.10.2027 -
Pedro Soma San Diego Football Club Ativo 102 / 107 40% 1 08.10.2027 -
Giovanni Leoni Bradford City Ativo 145 / 144 40% 2 06.10.2027 -
Marc Bernal Real Sociedad Ativo 142 / 157 40% 1 05.10.2027 -
Alejo Fernández Temperley Ativo 101 / 105 40% 1 08.09.2027 -
Lucas Silva River Plate Ativo 92 / 109 40% 1 23.08.2027 -
Mariano Gerez Lanús Ativo 99 / 111 40% 1 23.08.2027 -
Eddy Kouadio Crotone Ativo 102 / 112 40% 1 18.08.2027 -
Mamadou Sarr Chelsea Ativo 136 / 147 40% 1 18.08.2027 -
Adam Bakoune Ospitaletto Ativo 96 / 109 40% 1 12.08.2027 -
Felipe Faúndez O'Higgins Ativo 93 / 108 40% 1 12.08.2027 -
Kazunari Kita Real Sociedad Ativo 96 / 106 40% 1 05.07.2027 -
Daniel Kelly Oxford United Ativo 104 / 122 40% 1 15.06.2027 -
Davide Bartesaghi AC Milan Ativo 138 / 133 40% 1 15.06.2027 -
Pedro de la Vega FC Dallas Ativo 133 / 134 66% 1 01.06.2027 -
Dion Beljo Standard Liege Negociando 131 / 132 66% 1 01.06.2027 -
Martín Almeida Montevideo City Torque Ativo 97 / 104 40% 1 01.06.2027 -
Sascha Britschgi Padova Ativo 120 / 129 40% 1 31.05.2027 -
Johan Manzambi Newcastle United Ativo 144 / 143 40% 1 31.05.2027 -
Omar El Hilali Espanyol Ativo 151 / 147 40% 9 30.05.2027 -
Yusi Alavés Ativo 120 / 138 40% 3 30.05.2027 -
Isaac Price West Bromwich Albion Ativo 133 / 126 40% 1 30.05.2027 -
Mats Wieffer Brighton Ativo 150 / 149 40% 4 27.05.2027 -
Urko González Espanyol Ativo 132 / 132 40% 5 27.05.2027 -
Max Bird Birmingham Ativo 128 / 134 40% 5 27.05.2027 -
Amine Adli Bournemouth Ativo 141 / 148 40% 1 27.05.2027 -
Welington Southampton Ativo 135 / 134 40% 2 25.05.2027 -
Marvin Park Las Palmas Ativo 139 / 132 40% 3 25.05.2027 -
Andrés Martín Racing Santander Ativo 129 / 132 40% 3 23.05.2027 -
Arnau Martínez Valencia Ativo 142 / 142 40% 4 21.05.2027 -
Ethan Galbraith Swansea City Ativo 132 / 135 40% 4 21.05.2027 -
Noah Sadiki Sunderland Ativo 137 / 148 40% 2 20.05.2027 -
Juanlu Bournemouth Ativo 151 / 146 40% 2 20.05.2027 -
Aimar Osasuna Ativo 152 / 144 40% 2 18.05.2027 -
Aitor Paredes Athletic Bilbao Ativo 145 / 155 40% 3 14.05.2027 -
Harry Clarke Preston Ativo 130 / 132 40% 1 14.05.2027 -
Tyrhys Dolan Espanyol Ativo 148 / 144 40% 4 13.05.2027 -
Luke McNally Bristol City Ativo 139 / 134 40% 3 13.05.2027 -
Nathan Collins Brentford Ativo 145 / 149 40% 2 13.05.2027 -
Antony Betis Ativo 144 / 153 40% 1 13.05.2027 -
Kevin Vazquez Cruz Azul Ativo 143 / 133 40% 9 10.05.2027 -
Couhaib Driouech Celta Ativo 127 / 137 40% 1 10.05.2027 -
Kristoffer Lund Birmingham Ativo 128 / 124 40% 1 07.05.2027 -
Ryan Sessegnon Fulham Ativo 139 / 148 40% 7 06.05.2027 -
Jesús Vázquez Valencia Ativo 148 / 138 40% 1 06.05.2027 -
Yehor Yarmoliuk Brentford Ativo 145 / 154 40% 3 05.05.2027 -
Pablo Ramón Racing Santander Ativo 144 / 131 40% 1 03.05.2027 -
Ilaix Moriba Celta Ativo 154 / 155 40% 5 02.05.2027 -
Adrià Altimira Deportivo La Coruña Ativo 127 / 135 40% 9 30.04.2027 -
Erick Sánchez OGC Nice Ativo 148 / 138 40% 3 29.04.2027 -
Arnau Puigmal Mallorca Ativo 122 / 128 40% 1 28.04.2027 -
Fran García Betis Ativo 141 / 146 40% 6 24.04.2027 -
Michael Kayode Brentford Ativo 151 / 153 40% 1 23.04.2027 -
Daijiro Chirino Almería Ativo 125 / 138 40% 3 22.04.2027 -
Femi Seriki Sheffield United Ativo 132 / 129 40% 1 22.04.2027 -
Derry Murkin Derby County Ativo 131 / 127 40% 2 21.04.2027 -
Álex Lizancos Burgos Ativo 136 / 126 40% 1 20.04.2027 -
Florentino Luís Ipswich Town Ativo 140 / 136 40% 2 19.04.2027 -
Pol Lozano Espanyol Ativo 145 / 143 40% 6 13.04.2027 -
Javi Rodríguez Celta Ativo 150 / 155 40% 1 13.04.2027 -
Flavien-Enzo Boyomo Osasuna Ativo 152 / 154 40% 2 12.04.2027 -
Tom Fellows Southampton Ativo 141 / 131 40% 2 10.04.2027 -
Quinten Timber Crystal Palace Ativo 153 / 154 40% 2 08.04.2027 -
André Wolverhampton Ativo 150 / 143 40% 1 08.04.2027 -
Ozziel Herrera Tigres Ativo 131 / 123 40% 5 03.04.2027 -
Milan van Ewijk Mansfield Town Ativo 123 / 133 40% 4 02.04.2027 -
Nicolas Madsen Queens Park Rangers Ativo 126 / 125 40% 1 01.04.2027 -
Adam Wharton Crystal Palace Ativo 143 / 158 40% 1 31.03.2027 -
David Ozoh Derby County Ativo 122 / 129 40% 1 28.03.2027 -
Jake O'Brien Everton Ativo 149 / 149 40% 1 28.03.2027 -
Jarrad Branthwaite Everton Ativo 144 / 154 40% 3 27.03.2027 -
Nuno Tavares Lazio Ativo 151 / 148 40% 2 27.03.2027 -
Javi Guerra Valencia Ativo 149 / 147 40% 3 25.03.2027 Observar
Lucas Høgsberg RC Strasbourg Ativo 133 / 139 40% 1 25.03.2027 -
Lucas Da Cunha Como Ativo 136 / 143 40% 1 23.03.2027 -
Ronwen Phiri Platinum Stars Ativo 89 / 108 40% 1 22.03.2027 -
Leandro Martins Benfica Ativo 100 / 99 40% 1 21.03.2027 -
Keagan Tau Ajax Cape Town Ativo 82 / 103 40% 1 21.03.2027 -
Antonio Blanco Alavés Ativo 144 / 146 40% 1 18.03.2027 -
Sofiane Diop OGC Nice Ativo 136 / 139 40% 1 16.03.2027 -
Carlos Vicente Birmingham Ativo 145 / 142 40% 4 15.03.2027 -
Giacomo Raspadori Atalanta Ativo 145 / 144 40% 1 15.03.2027 -
Toby Collyer West Bromwich Albion Ativo 126 / 135 40% 2 11.03.2027 -
Adam Randell Bristol City Ativo 125 / 130 40% 1 24.02.2027 -
Lorenzo Amatucci Deportivo La Coruña Ativo 122 / 139 40% 2 16.02.2027 -
Álex Centelles Levski Ativo 142 / 129 40% 1 15.02.2027 -
Dara O'Shea Ipswich Town Ativo 145 / 132 40% 1 12.02.2027 -
Jacques Ekomié Wrexham Ativo 125 / 131 40% 1 11.02.2027 -
Alejandro Francés Girona Ativo 135 / 136 40% 1 07.02.2027 -
Adrien Truffert Bournemouth Ativo 158 / 148 40% 1 07.02.2027 -
Malick Thiaw West Ham United Ativo 148 / 156 40% 1 06.02.2027 -
Iván Martín Racing Santander Ativo 142 / 139 40% 1 04.02.2027 -
Dani Vivian Athletic Bilbao Ativo 142 / 147 40% 1 02.02.2027 -
Thalys Almería Ativo 125 / 126 40% 4 22.01.2027 -
Thiago Perruisset Boca Juniors Ativo 94 / 95 40% 1 01.01.2027 -
Ferdi Kadıoğlu Brighton Ativo 142 / 151 40% 1 31.12.2026 -
Aaron Hickey Brentford Ativo 151 / 149 40% 1 31.12.2026 -
Efraín Álvarez Guadalajara Ativo 140 / 133 40% 1 29.12.2026 -
Jonás Luna Santa Clara Ativo 124 / 121 40% 2 28.12.2026 -
Richard Ledezma Guadalajara Ativo 142 / 138 40% 2 28.12.2026 -
Vivaldo Semedo Watford Ativo 109 / 126 40% 2 28.12.2026 -
Oihan Sancet Athletic Bilbao Ativo 155 / 154 40% 7 26.12.2026 -
Hugo Duro Valencia Ativo 144 / 138 40% 2 25.12.2026 -
Pablo Torre Mallorca Ativo 135 / 147 40% 2 25.12.2026 -
Georginio Rutter Brighton Ativo 140 / 143 40% 1 16.12.2026 -
Brian Rodríguez Club America Ativo 116 / 126 40% 1 15.12.2026 -
Bryan González Guadalajara Ativo 126 / 134 40% 1 14.12.2026 -
Robert Navarro Athletic Bilbao Ativo 128 / 141 40% 1 11.12.2026 -
Eric Ramires Bragantino Ativo 119 / 128 40% 1 10.12.2026 Mais informações
Yan Diomandé Real Madrid Ativo 160 / 152 40% 2 09.12.2026 -
Marcelo Allende Mamelodi Sundowns Ativo 146 / 131 40% 1 07.12.2026 -
Jonathan Dubasin Osasuna Ativo 140 / 139 40% 1 07.12.2026 -
Brian Gutiérrez Guadalajara Ativo 115 / 129 40% 2 06.12.2026 -
Karim Adeyemi Barcelona Ativo 162 / 158 40% 1 06.12.2026 -
Tiago Palacios Estudiantes Ativo 119 / 130 40% 1 02.12.2026 -
Leo Castledine Middlesbrough Ativo 126 / 134 40% 2 30.11.2026 -
Rémi Lemoine Chamois Niortais Ativo 161 / 162 40% 4 27.11.2026 -
Nicolás Castro Toluca Ativo 141 / 134 40% 3 27.11.2026 -
Iliman N'Diaye Everton Ativo 163 / 159 40% 1 26.11.2026 -
Cody Gakpo Liverpool Ativo 160 / 161 40% 1 26.11.2026 -
Matko Miljevic Racing Club Ativo 125 / 125 40% 1 23.11.2026 -
Gabriel Martinelli Brighton Ativo 168 / 159 40% 4 19.11.2026 -
Javi Martínez Eibar Ativo 127 / 131 40% 1 14.11.2026 -
Matt O'Riley Brighton Ativo 148 / 145 40% 1 13.11.2026 -
Gorka Carrera Real Sociedad Ativo 113 / 127 40% 1 10.11.2026 -
Dom Ballard Leyton Orient Ativo 110 / 121 40% 2 09.11.2026 -
Georges Mikautadze Villarreal Ativo 162 / 154 40% 1 06.11.2026 -
Amadou Onana Aston Villa Ativo 158 / 151 40% 1 02.11.2026 -
Tani Oluwaseyi Villarreal Ativo 140 / 137 40% 1 30.10.2026 -
Diego Lainez Tigres Ativo 117 / 126 40% 1 29.10.2026 -
David Kalokoh Ajax Ativo 117 / 123 40% 1 27.10.2026 -
Juan Francisco Rossel Universidad Catolica Ativo 96 / 99 40% 1 26.10.2026 -
Will Lankshear Middlesbrough Ativo 125 / 121 40% 1 23.10.2026 -
Dylan Cabral Arsenal Ativo 87 / 100 40% 1 23.10.2026 -
Jones El-Abdellaoui Celta Ativo 116 / 128 40% 1 22.10.2026 -
Fidel Ambríz Monterrey Ativo 123 / 137 40% 1 19.10.2026 -
Xavi Simons Tottenham Ativo 162 / 155 40% 1 18.10.2026 -
Yeremy Pino Crystal Palace Ativo 146 / 143 40% 1 15.10.2026 -
Thiago Salischiker Rucci HNK Vukovar 1991 Ativo 85 / 102 40% 1 12.10.2026 -
Youssoufa Moukoko FC Copenhagen Ativo 126 / 128 40% 1 09.10.2026 -
Nico O'Reilly Manchester City Ativo 158 / 155 40% 1 08.10.2026 -
Ayrton Costa Boca Juniors Ativo 130 / 128 40% 1 08.10.2026 -
James Garner Everton Ativo 158 / 153 40% 1 05.10.2026 -
Nico Melamed Almería Ativo 123 / 125 58% 1 24.08.2026 -
Alejandro Leiva Vissel Kobe Ativo 100 / 104 40% 1 18.08.2026 -
Santiago Fernández Talleres Ativo 106 / 126 40% 1 02.08.2026 -